sensor_id;sensor_type;location;lat;lon;timestamp;pressure;altitude;pressure_sealevel;temperature;humidity
64230;BME280;50547;49.498;0.092;2022-09-03T00:00:03;1004;;;21.59;79.79
64230;BME280;50547;49.498;0.092;2022-09-03T00:02:39;1004;;;21.50;79.91
64230;BME280;50547;49.498;0.092;2022-09-03T00:05:15;1004;;;21.56;79.23
64230;BME280;50547;49.498;0.092;2022-09-03T00:07:50;1004;;;21.44;79.47
64230;BME280;50547;49.498;0.092;2022-09-03T00:10:27;1004;;;21.30;80.07
64230;BME280;50547;49.498;0.092;2022-09-03T00:13:00;1004;;;21.31;79.98
64230;BME280;50547;49.498;0.092;2022-09-03T00:15:33;1004;;;21.48;78.82
64230;BME280;50547;49.498;0.092;2022-09-03T00:18:05;1004;;;21.54;78.43
64230;BME280;50547;49.498;0.092;2022-09-03T00:20:40;1004;;;21.50;78.71
64230;BME280;50547;49.498;0.092;2022-09-03T00:23:15;1004;;;21.53;78.54
64230;BME280;50547;49.498;0.092;2022-09-03T00:25:50;1004;;;21.51;78.57
64230;BME280;50547;49.498;0.092;2022-09-03T00:28:23;1004;;;21.46;78.83
64230;BME280;50547;49.498;0.092;2022-09-03T00:31:04;1004;;;21.44;78.94
64230;BME280;50547;49.498;0.092;2022-09-03T00:33:36;1004;;;21.37;79.34
64230;BME280;50547;49.498;0.092;2022-09-03T00:36:14;1004;;;21.49;78.51
64230;BME280;50547;49.498;0.092;2022-09-03T00:38:44;1004;;;21.45;78.92
64230;BME280;50547;49.498;0.092;2022-09-03T00:41:23;1004;;;21.50;78.55
64230;BME280;50547;49.498;0.092;2022-09-03T00:44:07;1004;;;21.49;78.53
64230;BME280;50547;49.498;0.092;2022-09-03T00:46:46;1004;;;21.44;78.97
64230;BME280;50547;49.498;0.092;2022-09-03T00:49:25;1004;;;21.40;78.92
64230;BME280;50547;49.498;0.092;2022-09-03T00:52:06;1004;;;21.36;79.41
64230;BME280;50547;49.498;0.092;2022-09-03T00:54:43;1004;;;21.45;78.80
64230;BME280;50547;49.498;0.092;2022-09-03T00:57:24;1004;;;21.55;78.37
64230;BME280;50547;49.498;0.092;2022-09-03T01:00:03;1004;;;21.52;78.49
64230;BME280;50547;49.498;0.092;2022-09-03T01:02:45;1004;;;21.61;78.21
64230;BME280;50547;49.498;0.092;2022-09-03T01:05:24;1004;;;21.54;78.50
64230;BME280;50547;49.498;0.092;2022-09-03T01:08:06;1004;;;21.63;78.12
64230;BME280;50547;49.498;0.092;2022-09-03T01:10:45;1004;;;21.52;78.86
64230;BME280;50547;49.498;0.092;2022-09-03T01:13:23;1004;;;21.56;78.74
64230;BME280;50547;49.498;0.092;2022-09-03T01:16:03;1004;;;21.55;78.75
64230;BME280;50547;49.498;0.092;2022-09-03T01:18:41;1004;;;21.66;78.15
64230;BME280;50547;49.498;0.092;2022-09-03T01:21:27;1004;;;21.33;80.11
64230;BME280;50547;49.498;0.092;2022-09-03T01:24:17;1004;;;21.30;80.35
64230;BME280;50547;49.498;0.092;2022-09-03T01:27:02;1004;;;21.12;81.47
64230;BME280;50547;49.498;0.092;2022-09-03T01:29:42;1004;;;20.92;82.43
64230;BME280;50547;49.498;0.092;2022-09-03T01:32:21;1004;;;21.12;81.30
64230;BME280;50547;49.498;0.092;2022-09-03T01:34:56;1004;;;21.23;80.48
64230;BME280;50547;49.498;0.092;2022-09-03T01:37:35;1004;;;21.09;81.43
64230;BME280;50547;49.498;0.092;2022-09-03T01:40:16;1004;;;21.28;80.50
64230;BME280;50547;49.498;0.092;2022-09-03T01:43:02;1004;;;21.23;80.71
64230;BME280;50547;49.498;0.092;2022-09-03T01:45:43;1004;;;21.14;81.47
64230;BME280;50547;49.498;0.092;2022-09-03T01:48:26;1004;;;21.07;81.91
64230;BME280;50547;49.498;0.092;2022-09-03T01:51:05;1004;;;21.02;82.23
64230;BME280;50547;49.498;0.092;2022-09-03T01:53:50;1004;;;20.98;82.54
64230;BME280;50547;49.498;0.092;2022-09-03T01:56:34;1004;;;20.78;83.35
64230;BME280;50547;49.498;0.092;2022-09-03T01:59:10;1004;;;20.82;82.77
64230;BME280;50547;49.498;0.092;2022-09-03T02:01:42;1004;;;20.70;83.44
64230;BME280;50547;49.498;0.092;2022-09-03T02:04:16;1004;;;20.79;82.76
64230;BME280;50547;49.498;0.092;2022-09-03T02:06:47;1004;;;20.59;83.94
64230;BME280;50547;49.498;0.092;2022-09-03T02:09:16;1004;;;20.58;84.16
64230;BME280;50547;49.498;0.092;2022-09-03T02:11:51;1004;;;20.52;84.39
64230;BME280;50547;49.498;0.092;2022-09-03T02:14:24;1004;;;20.50;84.04
64230;BME280;50547;49.498;0.092;2022-09-03T02:16:56;1004;;;20.54;83.68
64230;BME280;50547;49.498;0.092;2022-09-03T02:19:27;1004;;;20.56;83.72
64230;BME280;50547;49.498;0.092;2022-09-03T02:21:57;1004;;;20.48;83.88
64230;BME280;50547;49.498;0.092;2022-09-03T02:24:27;1004;;;20.37;84.45
64230;BME280;50547;49.498;0.092;2022-09-03T02:26:56;1004;;;20.36;84.53
64230;BME280;50547;49.498;0.092;2022-09-03T02:29:25;1004;;;20.41;83.99
64230;BME280;50547;49.498;0.092;2022-09-03T02:31:54;1004;;;20.25;84.78
64230;BME280;50547;49.498;0.092;2022-09-03T02:34:23;1004;;;20.23;84.96
64230;BME280;50547;49.498;0.092;2022-09-03T02:36:52;1004;;;20.30;84.45
64230;BME280;50547;49.498;0.092;2022-09-03T02:39:21;1004;;;20.43;83.67
64230;BME280;50547;49.498;0.092;2022-09-03T02:41:54;1004;;;20.40;83.94
64230;BME280;50547;49.498;0.092;2022-09-03T02:44:26;1004;;;20.43;83.66
64230;BME280;50547;49.498;0.092;2022-09-03T02:47:00;1004;;;20.40;83.97
64230;BME280;50547;49.498;0.092;2022-09-03T02:49:30;1004;;;20.50;83.71
64230;BME280;50547;49.498;0.092;2022-09-03T02:52:01;1004;;;20.42;84.12
64230;BME280;50547;49.498;0.092;2022-09-03T02:54:31;1004;;;20.42;84.33
64230;BME280;50547;49.498;0.092;2022-09-03T02:57:01;1004;;;20.41;84.17
64230;BME280;50547;49.498;0.092;2022-09-03T02:59:30;1004;;;20.50;83.49
64230;BME280;50547;49.498;0.092;2022-09-03T03:01:59;1004;;;20.48;83.85
64230;BME280;50547;49.498;0.092;2022-09-03T03:04:29;1004;;;20.41;84.24
64230;BME280;50547;49.498;0.092;2022-09-03T03:06:59;1004;;;20.52;83.89
64230;BME280;50547;49.498;0.092;2022-09-03T03:09:28;1004;;;20.46;84.39
64230;BME280;50547;49.498;0.092;2022-09-03T03:11:58;1004;;;20.60;83.61
64230;BME280;50547;49.498;0.092;2022-09-03T03:14:27;1004;;;20.27;85.70
64230;BME280;50547;49.498;0.092;2022-09-03T03:16:56;1004;;;20.19;86.17
64230;BME280;50547;49.498;0.092;2022-09-03T03:19:25;1004;;;20.17;85.94
64230;BME280;50547;49.498;0.092;2022-09-03T03:21:54;1004;;;20.08;86.32
64230;BME280;50547;49.498;0.092;2022-09-03T03:24:23;1004;;;20.29;84.95
64230;BME280;50547;49.498;0.092;2022-09-03T03:26:54;1004;;;20.24;85.27
64230;BME280;50547;49.498;0.092;2022-09-03T03:29:23;1004;;;20.13;86.12
64230;BME280;50547;49.498;0.092;2022-09-03T03:31:52;1004;;;20.16;85.96
64230;BME280;50547;49.498;0.092;2022-09-03T03:34:21;1004;;;20.10;85.98
64230;BME280;50547;49.498;0.092;2022-09-03T03:36:50;1004;;;20.17;85.51
64230;BME280;50547;49.498;0.092;2022-09-03T03:39:19;1004;;;20.10;85.86
64230;BME280;50547;49.498;0.092;2022-09-03T03:41:48;1004;;;20.23;85.06
64230;BME280;50547;49.498;0.092;2022-09-03T03:44:17;1004;;;20.16;85.30
64230;BME280;50547;49.498;0.092;2022-09-03T03:46:46;1004;;;20.10;85.46
64230;BME280;50547;49.498;0.092;2022-09-03T03:49:15;1004;;;20.14;85.46
64230;BME280;50547;49.498;0.092;2022-09-03T03:51:44;1004;;;20.04;85.94
64230;BME280;50547;49.498;0.092;2022-09-03T03:54:14;1004;;;20.02;85.91
64230;BME280;50547;49.498;0.092;2022-09-03T03:56:43;1004;;;20.10;85.25
64230;BME280;50547;49.498;0.092;2022-09-03T03:59:12;1004;;;20.22;84.63
64230;BME280;50547;49.498;0.092;2022-09-03T04:01:42;1004;;;20.20;84.76
64230;BME280;50547;49.498;0.092;2022-09-03T04:04:11;1004;;;19.93;85.99
64230;BME280;50547;49.498;0.092;2022-09-03T04:06:40;1004;;;20.12;84.87
64230;BME280;50547;49.498;0.092;2022-09-03T04:09:09;1004;;;20.26;84.63
64230;BME280;50547;49.498;0.092;2022-09-03T04:11:38;1004;;;20.26;84.91
64230;BME280;50547;49.498;0.092;2022-09-03T04:14:07;1004;;;20.39;84.49
64230;BME280;50547;49.498;0.092;2022-09-03T04:16:36;1004;;;20.24;85.36
64230;BME280;50547;49.498;0.092;2022-09-03T04:19:05;1004;;;20.33;84.75
64230;BME280;50547;49.498;0.092;2022-09-03T04:21:34;1004;;;20.33;84.87
64230;BME280;50547;49.498;0.092;2022-09-03T04:24:04;1004;;;20.43;84.25
64230;BME280;50547;49.498;0.092;2022-09-03T04:26:34;1004;;;20.41;84.34
64230;BME280;50547;49.498;0.092;2022-09-03T04:29:05;1004;;;20.56;83.66
64230;BME280;50547;49.498;0.092;2022-09-03T04:31:36;1004;;;20.82;82.40
64230;BME280;50547;49.498;0.092;2022-09-03T04:34:05;1004;;;20.81;82.66
64230;BME280;50547;49.498;0.092;2022-09-03T04:36:34;1004;;;20.71;83.37
64230;BME280;50547;49.498;0.092;2022-09-03T04:39:03;1004;;;20.51;84.35
64230;BME280;50547;49.498;0.092;2022-09-03T04:41:32;1004;;;20.45;84.72
64230;BME280;50547;49.498;0.092;2022-09-03T04:44:01;1004;;;20.44;84.61
64230;BME280;50547;49.498;0.092;2022-09-03T04:46:30;1004;;;20.39;84.68
64230;BME280;50547;49.498;0.092;2022-09-03T04:49:00;1004;;;20.40;84.42
64230;BME280;50547;49.498;0.092;2022-09-03T04:51:29;1004;;;20.29;84.79
64230;BME280;50547;49.498;0.092;2022-09-03T04:54:00;1004;;;20.11;85.61
64230;BME280;50547;49.498;0.092;2022-09-03T04:56:31;1004;;;20.04;85.77
64230;BME280;50547;49.498;0.092;2022-09-03T04:59:02;1004;;;20.09;85.29
64230;BME280;50547;49.498;0.092;2022-09-03T05:01:33;1004;;;20.17;84.49
64230;BME280;50547;49.498;0.092;2022-09-03T05:04:04;1004;;;20.16;84.46
64230;BME280;50547;49.498;0.092;2022-09-03T05:06:34;1004;;;20.23;84.15
64230;BME280;50547;49.498;0.092;2022-09-03T05:09:05;1004;;;20.24;84.03
64230;BME280;50547;49.498;0.092;2022-09-03T05:11:34;1004;;;20.49;82.88
64230;BME280;50547;49.498;0.092;2022-09-03T05:14:03;1004;;;20.51;82.81
64230;BME280;50547;49.498;0.092;2022-09-03T05:16:32;1004;;;20.50;83.13
64230;BME280;50547;49.498;0.092;2022-09-03T05:19:01;1004;;;20.44;83.17
64230;BME280;50547;49.498;0.092;2022-09-03T05:21:31;1004;;;20.42;83.17
64230;BME280;50547;49.498;0.092;2022-09-03T05:24:01;1004;;;20.47;82.64
64230;BME280;50547;49.498;0.092;2022-09-03T05:26:32;1004;;;20.35;83.50
64230;BME280;50547;49.498;0.092;2022-09-03T05:29:03;1004;;;20.48;83.00
64230;BME280;50547;49.498;0.092;2022-09-03T05:31:34;1004;;;20.56;82.66
64230;BME280;50547;49.498;0.092;2022-09-03T05:34:04;1004;;;20.49;82.92
64230;BME280;50547;49.498;0.092;2022-09-03T05:36:35;1004;;;20.62;82.28
64230;BME280;50547;49.498;0.092;2022-09-03T05:39:05;1004;;;20.64;82.28
64230;BME280;50547;49.498;0.092;2022-09-03T05:41:34;1004;;;20.64;82.35
64230;BME280;50547;49.498;0.092;2022-09-03T05:44:03;1004;;;20.71;81.99
64230;BME280;50547;49.498;0.092;2022-09-03T05:46:32;1004;;;20.67;82.09
64230;BME280;50547;49.498;0.092;2022-09-03T05:49:03;1004;;;20.63;82.30
64230;BME280;50547;49.498;0.092;2022-09-03T05:51:35;1004;;;20.55;82.77
64230;BME280;50547;49.498;0.092;2022-09-03T05:54:04;1004;;;20.31;84.02
64230;BME280;50547;49.498;0.092;2022-09-03T05:56:35;1004;;;20.34;83.34
64230;BME280;50547;49.498;0.092;2022-09-03T05:59:06;1004;;;20.26;83.44
64230;BME280;50547;49.498;0.092;2022-09-03T06:01:37;1004;;;20.36;82.89
64230;BME280;50547;49.498;0.092;2022-09-03T06:04:09;1004;;;20.38;82.75
64230;BME280;50547;49.498;0.092;2022-09-03T06:06:40;1004;;;20.41;82.78
64230;BME280;50547;49.498;0.092;2022-09-03T06:09:11;1004;;;20.38;82.79
64230;BME280;50547;49.498;0.092;2022-09-03T06:11:41;1004;;;20.28;83.35
64230;BME280;50547;49.498;0.092;2022-09-03T06:14:12;1004;;;20.17;83.60
64230;BME280;50547;49.498;0.092;2022-09-03T06:16:43;1004;;;20.09;84.09
64230;BME280;50547;49.498;0.092;2022-09-03T06:19:12;1004;;;20.10;84.29
64230;BME280;50547;49.498;0.092;2022-09-03T06:21:44;1005;;;20.16;84.23
64230;BME280;50547;49.498;0.092;2022-09-03T06:24:15;1004;;;20.02;84.71
64230;BME280;50547;49.498;0.092;2022-09-03T06:26:44;1005;;;19.91;85.07
64230;BME280;50547;49.498;0.092;2022-09-03T06:29:14;1005;;;19.78;85.44
64230;BME280;50547;49.498;0.092;2022-09-03T06:31:43;1005;;;19.86;84.88
64230;BME280;50547;49.498;0.092;2022-09-03T06:34:12;1005;;;19.83;84.74
64230;BME280;50547;49.498;0.092;2022-09-03T06:36:41;1005;;;19.75;84.68
64230;BME280;50547;49.498;0.092;2022-09-03T06:39:10;1005;;;19.74;84.76
64230;BME280;50547;49.498;0.092;2022-09-03T06:41:39;1005;;;19.80;84.37
64230;BME280;50547;49.498;0.092;2022-09-03T06:44:08;1005;;;19.79;84.32
64230;BME280;50547;49.498;0.092;2022-09-03T06:46:38;1005;;;19.77;84.15
64230;BME280;50547;49.498;0.092;2022-09-03T06:49:08;1005;;;19.82;83.74
64230;BME280;50547;49.498;0.092;2022-09-03T06:51:38;1005;;;19.82;83.97
64230;BME280;50547;49.498;0.092;2022-09-03T06:54:09;1005;;;19.91;83.95
64230;BME280;50547;49.498;0.092;2022-09-03T06:56:39;1005;;;19.94;84.09
64230;BME280;50547;49.498;0.092;2022-09-03T06:59:10;1005;;;19.92;84.12
64230;BME280;50547;49.498;0.092;2022-09-03T07:01:40;1005;;;19.95;83.99
64230;BME280;50547;49.498;0.092;2022-09-03T07:04:10;1005;;;20.10;83.68
64230;BME280;50547;49.498;0.092;2022-09-03T07:06:40;1005;;;20.25;83.10
64230;BME280;50547;49.498;0.092;2022-09-03T07:09:11;1005;;;20.27;82.91
64230;BME280;50547;49.498;0.092;2022-09-03T07:11:40;1005;;;20.41;82.61
64230;BME280;50547;49.498;0.092;2022-09-03T07:14:09;1005;;;20.49;82.25
64230;BME280;50547;49.498;0.092;2022-09-03T07:16:38;1005;;;20.42;82.78
64230;BME280;50547;49.498;0.092;2022-09-03T07:19:07;1005;;;20.50;82.68
64230;BME280;50547;49.498;0.092;2022-09-03T07:21:37;1005;;;20.49;82.73
64230;BME280;50547;49.498;0.092;2022-09-03T07:24:07;1005;;;20.62;82.32
64230;BME280;50547;49.498;0.092;2022-09-03T07:26:38;1005;;;20.65;82.20
64230;BME280;50547;49.498;0.092;2022-09-03T07:29:08;1005;;;20.66;82.09
64230;BME280;50547;49.498;0.092;2022-09-03T07:31:38;1005;;;20.89;81.49
64230;BME280;50547;49.498;0.092;2022-09-03T07:34:10;1005;;;20.94;81.19
64230;BME280;50547;49.498;0.092;2022-09-03T07:36:41;1005;;;21.04;80.78
64230;BME280;50547;49.498;0.092;2022-09-03T07:39:16;1005;;;20.95;80.99
64230;BME280;50547;49.498;0.092;2022-09-03T07:41:45;1005;;;21.05;80.47
64230;BME280;50547;49.498;0.092;2022-09-03T07:44:16;1005;;;21.14;80.09
64230;BME280;50547;49.498;0.092;2022-09-03T07:46:46;1005;;;21.07;80.23
64230;BME280;50547;49.498;0.092;2022-09-03T07:49:16;1005;;;21.12;80.19
64230;BME280;50547;49.498;0.092;2022-09-03T07:51:45;1005;;;21.26;79.56
64230;BME280;50547;49.498;0.092;2022-09-03T07:54:14;1005;;;21.40;78.87
64230;BME280;50547;49.498;0.092;2022-09-03T07:56:43;1005;;;21.30;79.23
64230;BME280;50547;49.498;0.092;2022-09-03T07:59:12;1005;;;21.15;79.82
64230;BME280;50547;49.498;0.092;2022-09-03T08:01:41;1005;;;21.29;79.23
64230;BME280;50547;49.498;0.092;2022-09-03T08:04:10;1005;;;21.56;78.15
64230;BME280;50547;49.498;0.092;2022-09-03T08:06:39;1005;;;21.82;77.44
64230;BME280;50547;49.498;0.092;2022-09-03T08:09:10;1005;;;22.04;76.72
64230;BME280;50547;49.498;0.092;2022-09-03T08:11:41;1005;;;22.25;75.68
64230;BME280;50547;49.498;0.092;2022-09-03T08:14:12;1005;;;22.22;75.96
64230;BME280;50547;49.498;0.092;2022-09-03T08:16:43;1005;;;22.39;75.58
64230;BME280;50547;49.498;0.092;2022-09-03T08:19:12;1005;;;22.41;75.43
64230;BME280;50547;49.498;0.092;2022-09-03T08:21:42;1005;;;22.30;75.70
64230;BME280;50547;49.498;0.092;2022-09-03T08:24:11;1005;;;21.51;79.15
64230;BME280;50547;49.498;0.092;2022-09-03T08:26:42;1005;;;21.58;79.00
64230;BME280;50547;49.498;0.092;2022-09-03T08:29:11;1005;;;21.69;77.70
64230;BME280;50547;49.498;0.092;2022-09-03T08:31:40;1005;;;21.48;77.43
64230;BME280;50547;49.498;0.092;2022-09-03T08:34:09;1005;;;21.52;77.28
64230;BME280;50547;49.498;0.092;2022-09-03T08:36:39;1005;;;21.82;76.30
64230;BME280;50547;49.498;0.092;2022-09-03T08:39:09;1005;;;21.84;76.08
64230;BME280;50547;49.498;0.092;2022-09-03T08:41:52;1005;;;21.74;76.83
64230;BME280;50547;49.498;0.092;2022-09-03T08:44:28;1005;;;21.70;77.10
64230;BME280;50547;49.498;0.092;2022-09-03T08:47:01;1005;;;21.78;76.54
64230;BME280;50547;49.498;0.092;2022-09-03T08:50:41;1006;;;21.66;76.80
64230;BME280;50547;49.498;0.092;2022-09-03T08:53:16;1006;;;21.75;76.71
64230;BME280;50547;49.498;0.092;2022-09-03T08:55:50;1006;;;21.68;77.15
64230;BME280;50547;49.498;0.092;2022-09-03T08:58:24;1006;;;21.68;77.01
64230;BME280;50547;49.498;0.092;2022-09-03T09:00:56;1006;;;21.53;77.63
64230;BME280;50547;49.498;0.092;2022-09-03T09:03:33;1006;;;21.67;76.97
64230;BME280;50547;49.498;0.092;2022-09-03T09:06:11;1006;;;21.65;76.50
64230;BME280;50547;49.498;0.092;2022-09-03T09:08:50;1006;;;21.70;77.26
64230;BME280;50547;49.498;0.092;2022-09-03T09:11:29;1006;;;21.69;76.82
64230;BME280;50547;49.498;0.092;2022-09-03T09:14:08;1006;;;21.57;76.95
64230;BME280;50547;49.498;0.092;2022-09-03T09:16:47;1006;;;21.61;77.17
64230;BME280;50547;49.498;0.092;2022-09-03T09:19:29;1006;;;21.69;76.89
64230;BME280;50547;49.498;0.092;2022-09-03T09:22:03;1006;;;21.78;76.48
64230;BME280;50547;49.498;0.092;2022-09-03T09:24:40;1006;;;22.02;75.09
64230;BME280;50547;49.498;0.092;2022-09-03T09:27:12;1006;;;21.99;75.03
64230;BME280;50547;49.498;0.092;2022-09-03T09:29:45;1006;;;22.44;73.49
64230;BME280;50547;49.498;0.092;2022-09-03T09:32:17;1006;;;22.14;74.12
64230;BME280;50547;49.498;0.092;2022-09-03T09:34:44;1006;;;22.36;74.44
64230;BME280;50547;49.498;0.092;2022-09-03T09:37:14;1006;;;22.52;73.72
64230;BME280;50547;49.498;0.092;2022-09-03T09:39:54;1006;;;22.64;73.36
64230;BME280;50547;49.498;0.092;2022-09-03T09:42:24;1006;;;22.82;71.97
64230;BME280;50547;49.498;0.092;2022-09-03T09:44:53;1006;;;23.25;70.57
64230;BME280;50547;49.498;0.092;2022-09-03T09:47:25;1006;;;23.61;69.15
64230;BME280;50547;49.498;0.092;2022-09-03T09:49:56;1006;;;24.08;67.62
64230;BME280;50547;49.498;0.092;2022-09-03T09:52:28;1006;;;23.97;68.83
64230;BME280;50547;49.498;0.092;2022-09-03T09:55:06;1006;;;23.80;69.42
64230;BME280;50547;49.498;0.092;2022-09-03T09:57:36;1006;;;23.73;69.36
64230;BME280;50547;49.498;0.092;2022-09-03T10:00:07;1006;;;24.17;67.95
64230;BME280;50547;49.498;0.092;2022-09-03T10:02:40;1006;;;23.65;70.42
64230;BME280;50547;49.498;0.092;2022-09-03T10:05:19;1006;;;24.00;69.27
64230;BME280;50547;49.498;0.092;2022-09-03T10:07:54;1006;;;24.23;68.34
64230;BME280;50547;49.498;0.092;2022-09-03T10:10:25;1006;;;23.98;69.65
64230;BME280;50547;49.498;0.092;2022-09-03T10:12:59;1006;;;24.07;68.84
64230;BME280;50547;49.498;0.092;2022-09-03T10:15:36;1006;;;24.19;68.17
64230;BME280;50547;49.498;0.092;2022-09-03T10:18:18;1006;;;23.99;68.71
64230;BME280;50547;49.498;0.092;2022-09-03T10:20:54;1006;;;24.48;67.30
64230;BME280;50547;49.498;0.092;2022-09-03T10:23:28;1006;;;24.87;65.94
64230;BME280;50547;49.498;0.092;2022-09-03T10:26:03;1006;;;25.22;64.25
64230;BME280;50547;49.498;0.092;2022-09-03T10:28:34;1006;;;24.55;65.86
64230;BME280;50547;49.498;0.092;2022-09-03T10:31:17;1006;;;24.39;67.72
64230;BME280;50547;49.498;0.092;2022-09-03T10:33:50;1006;;;25.14;65.36
64230;BME280;50547;49.498;0.092;2022-09-03T10:36:23;1006;;;24.85;65.63
64230;BME280;50547;49.498;0.092;2022-09-03T10:38:58;1006;;;25.03;65.56
64230;BME280;50547;49.498;0.092;2022-09-03T10:41:41;1006;;;24.78;65.44
64230;BME280;50547;49.498;0.092;2022-09-03T10:44:24;1006;;;25.26;64.50
64230;BME280;50547;49.498;0.092;2022-09-03T10:47:06;1006;;;25.63;61.97
64230;BME280;50547;49.498;0.092;2022-09-03T10:49:48;1006;;;25.62;63.85
64230;BME280;50547;49.498;0.092;2022-09-03T10:52:26;1006;;;25.85;62.82
64230;BME280;50547;49.498;0.092;2022-09-03T10:55:05;1006;;;25.98;62.28
64230;BME280;50547;49.498;0.092;2022-09-03T10:57:45;1006;;;26.02;62.49
64230;BME280;50547;49.498;0.092;2022-09-03T11:00:21;1006;;;26.04;62.00
64230;BME280;50547;49.498;0.092;2022-09-03T11:03:05;1006;;;26.12;62.17
64230;BME280;50547;49.498;0.092;2022-09-03T11:05:37;1006;;;26.68;60.92
64230;BME280;50547;49.498;0.092;2022-09-03T11:08:11;1006;;;26.74;60.67
64230;BME280;50547;49.498;0.092;2022-09-03T11:10:44;1006;;;27.06;59.93
64230;BME280;50547;49.498;0.092;2022-09-03T11:13:18;1006;;;27.08;58.92
64230;BME280;50547;49.498;0.092;2022-09-03T11:15:52;1006;;;27.07;59.27
64230;BME280;50547;49.498;0.092;2022-09-03T11:18:25;1006;;;26.87;61.15
64230;BME280;50547;49.498;0.092;2022-09-03T11:20:58;1006;;;26.16;63.83
64230;BME280;50547;49.498;0.092;2022-09-03T11:23:30;1006;;;25.37;66.26
64230;BME280;50547;49.498;0.092;2022-09-03T11:26:05;1006;;;24.80;68.54
64230;BME280;50547;49.498;0.092;2022-09-03T11:28:40;1006;;;24.85;67.56
64230;BME280;50547;49.498;0.092;2022-09-03T11:31:18;1006;;;24.71;68.35
64230;BME280;50547;49.498;0.092;2022-09-03T11:33:50;1006;;;24.52;68.60
64230;BME280;50547;49.498;0.092;2022-09-03T11:36:29;1006;;;24.22;69.53
64230;BME280;50547;49.498;0.092;2022-09-03T11:38:59;1006;;;23.84;71.85
64230;BME280;50547;49.498;0.092;2022-09-03T11:41:33;1006;;;22.82;78.44
64230;BME280;50547;49.498;0.092;2022-09-03T11:44:16;1006;;;22.25;80.98
64230;BME280;50547;49.498;0.092;2022-09-03T11:46:53;1006;;;21.82;82.35
64230;BME280;50547;49.498;0.092;2022-09-03T11:49:27;1006;;;21.64;83.13
64230;BME280;50547;49.498;0.092;2022-09-03T11:51:59;1006;;;21.43;83.38
64230;BME280;50547;49.498;0.092;2022-09-03T11:54:32;1006;;;21.25;82.91
64230;BME280;50547;49.498;0.092;2022-09-03T11:57:12;1006;;;21.10;83.05
64230;BME280;50547;49.498;0.092;2022-09-03T11:59:43;1006;;;21.00;81.88
64230;BME280;50547;49.498;0.092;2022-09-03T12:02:22;1006;;;20.89;81.84
64230;BME280;50547;49.498;0.092;2022-09-03T12:05:06;1006;;;21.02;80.80
64230;BME280;50547;49.498;0.092;2022-09-03T12:07:48;1006;;;21.15;80.11
64230;BME280;50547;49.498;0.092;2022-09-03T12:10:29;1006;;;21.18;79.78
64230;BME280;50547;49.498;0.092;2022-09-03T12:13:15;1006;;;21.21;79.65
64230;BME280;50547;49.498;0.092;2022-09-03T12:15:59;1006;;;21.43;78.71
64230;BME280;50547;49.498;0.092;2022-09-03T12:18:34;1006;;;21.45;78.08
64230;BME280;50547;49.498;0.092;2022-09-03T12:21:07;1006;;;21.52;77.61
64230;BME280;50547;49.498;0.092;2022-09-03T12:23:40;1006;;;21.76;76.85
64230;BME280;50547;49.498;0.092;2022-09-03T12:26:12;1006;;;22.03;76.36
64230;BME280;50547;49.498;0.092;2022-09-03T12:28:45;1006;;;22.44;75.53
64230;BME280;50547;49.498;0.092;2022-09-03T12:31:17;1006;;;22.66;74.96
64230;BME280;50547;49.498;0.092;2022-09-03T12:33:48;1006;;;22.77;73.94
64230;BME280;50547;49.498;0.092;2022-09-03T12:36:18;1006;;;22.53;74.23
64230;BME280;50547;49.498;0.092;2022-09-03T12:38:44;1006;;;23.22;72.74
64230;BME280;50547;49.498;0.092;2022-09-03T12:41:22;1006;;;23.69;71.43
64230;BME280;50547;49.498;0.092;2022-09-03T13:59:04;1007;;;19.96;83.25
64230;BME280;50547;49.498;0.092;2022-09-03T14:01:45;1007;;;20.19;82.90
64230;BME280;50547;49.498;0.092;2022-09-03T14:04:28;1007;;;20.48;82.13
64230;BME280;50547;49.498;0.092;2022-09-03T14:07:07;1007;;;20.68;81.68
64230;BME280;50547;49.498;0.092;2022-09-03T14:09:46;1007;;;20.86;81.34
64230;BME280;50547;49.498;0.092;2022-09-03T14:12:28;1007;;;20.86;81.64
64230;BME280;50547;49.498;0.092;2022-09-03T14:15:02;1007;;;21.22;81.13
64230;BME280;50547;49.498;0.092;2022-09-03T14:17:39;1007;;;21.51;80.38
64230;BME280;50547;49.498;0.092;2022-09-03T14:20:16;1007;;;21.54;80.43
64230;BME280;50547;49.498;0.092;2022-09-03T14:22:52;1007;;;21.68;80.33
64230;BME280;50547;49.498;0.092;2022-09-03T14:25:24;1007;;;21.81;79.94
64230;BME280;50547;49.498;0.092;2022-09-03T14:27:54;1007;;;21.90;78.90
64230;BME280;50547;49.498;0.092;2022-09-03T14:30:45;1007;;;22.31;77.47
64230;BME280;50547;49.498;0.092;2022-09-03T14:33:25;1007;;;22.40;77.08
64230;BME280;50547;49.498;0.092;2022-09-03T14:36:06;1007;;;22.40;77.10
64230;BME280;50547;49.498;0.092;2022-09-03T14:38:54;1007;;;22.45;77.22
64230;BME280;50547;49.498;0.092;2022-09-03T14:41:42;1007;;;22.46;77.08
64230;BME280;50547;49.498;0.092;2022-09-03T14:44:25;1007;;;22.55;76.85
64230;BME280;50547;49.498;0.092;2022-09-03T14:47:03;1007;;;22.50;76.84
64230;BME280;50547;49.498;0.092;2022-09-03T14:49:47;1007;;;22.81;76.32
64230;BME280;50547;49.498;0.092;2022-09-03T14:52:29;1007;;;23.18;75.40
64230;BME280;50547;49.498;0.092;2022-09-03T14:55:22;1007;;;23.25;75.23
64230;BME280;50547;49.498;0.092;2022-09-03T14:58:08;1007;;;23.07;76.20
64230;BME280;50547;49.498;0.092;2022-09-03T15:00:49;1007;;;23.12;75.88
64230;BME280;50547;49.498;0.092;2022-09-03T15:03:41;1007;;;22.83;75.71
64230;BME280;50547;49.498;0.092;2022-09-03T15:06:22;1007;;;23.11;75.66
64230;BME280;50547;49.498;0.092;2022-09-03T15:09:06;1007;;;23.51;74.63
64230;BME280;50547;49.498;0.092;2022-09-03T15:11:47;1007;;;23.79;73.66
64230;BME280;50547;49.498;0.092;2022-09-03T15:14:23;1007;;;23.96;73.50
64230;BME280;50547;49.498;0.092;2022-09-03T15:16:57;1007;;;24.36;72.87
64230;BME280;50547;49.498;0.092;2022-09-03T15:20:10;1007;;;24.52;72.98
64230;BME280;50547;49.498;0.092;2022-09-03T15:23:01;1007;;;24.20;73.18
64230;BME280;50547;49.498;0.092;2022-09-03T15:25:46;1007;;;23.85;73.56
64230;BME280;50547;49.498;0.092;2022-09-03T15:28:24;1007;;;24.10;72.90
64230;BME280;50547;49.498;0.092;2022-09-03T15:31:01;1007;;;24.17;72.53
64230;BME280;50547;49.498;0.092;2022-09-03T15:33:43;1007;;;23.96;72.85
64230;BME280;50547;49.498;0.092;2022-09-03T15:36:18;1007;;;24.13;72.15